Time;durP1;ratioP1;P1;durP2;ratioP2;P2;SDS_P1;SDS_P2;PMS_P1;PMS_P2;Temp;Humidity;BMP_temperature;BMP_pressure;BME280_temperature;BME280_humidity;BME280_pressure;Samples;Min_cycle;Max_cycle;Signal;HPM_P1;HPM_P2
2023/01/02 00:00:48;;;;;;;12.40;5.70;;;;;;;-148.88;100.00;75693.94;5013436;28;20030;-76
2023/01/02 00:03:14;;;;;;;12.70;5.70;;;;;;;-148.88;100.00;75683.78;5013382;28;20398;-76
2023/01/02 00:05:39;;;;;;;13.63;5.40;;;;;;;-148.88;100.00;75661.44;5013335;28;20053;-76
2023/01/02 00:08:04;;;;;;;12.75;5.45;;;;;;;-148.88;100.00;75653.31;4995752;28;20095;-75
2023/01/02 00:10:30;;;;;;;9.98;4.70;;;;;;;-148.88;100.00;75651.28;5013240;28;20033;-75
2023/01/02 00:12:55;;;;;;;12.20;5.50;;;;;;;-148.88;100.00;75641.13;4995394;28;20030;-74
2023/01/02 00:15:20;;;;;;;11.35;4.68;;;;;;;-148.88;100.00;75637.06;4995395;28;20022;-75
2023/01/02 00:17:45;;;;;;;8.93;4.90;;;;;;;-148.88;100.00;75626.91;5013075;28;20049;-75
2023/01/02 00:20:11;;;;;;;9.88;4.95;;;;;;;-148.88;100.00;75616.75;5013094;28;20052;-75
2023/01/02 00:22:36;;;;;;;9.75;4.57;;;;;;;-148.88;100.00;75610.66;5012968;28;20018;-75
2023/01/02 00:25:02;;;;;;;9.00;4.80;;;;;;;-148.88;100.00;75606.59;5013089;28;20029;-76
2023/01/02 00:27:27;;;;;;;13.30;4.93;;;;;;;-148.88;100.00;75606.59;4995569;28;20026;-75
2023/01/02 00:29:52;;;;;;;8.73;4.50;;;;;;;-148.88;100.00;75596.44;4995335;28;20474;-75
2023/01/02 00:32:18;;;;;;;8.52;4.25;;;;;;;-148.88;100.00;75586.31;4995456;28;20140;-76
2023/01/02 00:34:43;;;;;;;10.25;4.60;;;;;;;-148.88;100.00;75574.13;4995244;28;20435;-75
2023/01/02 00:37:08;;;;;;;10.13;4.40;;;;;;;-148.88;100.00;75566.00;4995087;28;20068;-75
2023/01/02 00:39:33;;;;;;;10.55;4.63;;;;;;;-148.88;100.00;75557.88;5012833;28;20030;-75
2023/01/02 00:41:59;;;;;;;9.20;4.20;;;;;;;-148.88;100.00;75553.81;5012788;28;20095;-75
2023/01/02 00:44:24;;;;;;;12.23;4.13;;;;;;;-148.88;100.00;75549.75;5012763;28;20021;-75
2023/01/02 00:46:49;;;;;;;11.02;4.20;;;;;;;-148.88;100.00;75543.66;5012897;28;20076;-75
2023/01/02 00:49:14;;;;;;;11.40;3.88;;;;;;;-148.88;100.00;75529.44;4995018;28;20021;-75
2023/01/02 00:51:40;;;;;;;13.80;4.07;;;;;;;-148.88;100.00;75523.34;5012672;28;20574;-75
2023/01/02 00:54:05;;;;;;;10.10;4.60;;;;;;;-148.88;100.00;75525.38;4995263;28;20030;-75
2023/01/02 00:56:30;;;;;;;10.10;4.07;;;;;;;-148.88;100.00;75533.50;5012601;28;20398;-75
2023/01/02 00:58:56;;;;;;;8.50;4.22;;;;;;;-148.88;100.00;75531.47;5012483;28;20516;-75
2023/01/02 01:01:21;;;;;;;8.80;3.80;;;;;;;-148.88;100.00;75523.34;5012603;28;20084;-75
2023/01/02 01:03:46;;;;;;;12.60;4.25;;;;;;;-148.88;100.00;75513.19;5012650;28;20113;-75
2023/01/02 01:06:13;;;;;;;8.77;3.33;;;;;;;-148.88;100.00;75509.13;5012123;28;20022;-75
2023/01/02 01:08:39;;;;;;;8.38;3.78;;;;;;;-148.88;100.00;75513.19;5012500;28;20105;-75
2023/01/02 01:11:09;;;;;;;8.68;3.60;;;;;;;-148.88;100.00;75507.09;5012540;28;20563;-75
2023/01/02 01:13:35;;;;;;;12.30;4.35;;;;;;;-148.88;100.00;75501.00;5012731;28;20037;-75
2023/01/02 01:16:09;;;;;;;10.10;3.83;;;;;;;-148.88;100.00;75486.78;5012587;28;20026;-75
2023/01/02 01:18:35;;;;;;;13.60;4.18;;;;;;;-148.88;100.00;75492.88;5012467;28;20030;-75
2023/01/02 01:21:10;;;;;;;11.23;3.95;;;;;;;-148.88;100.00;75486.78;5012246;28;20363;-75
2023/01/02 01:23:37;;;;;;;7.47;3.67;;;;;;;-148.88;100.00;75480.69;5012372;28;20088;-75
2023/01/02 01:26:07;;;;;;;8.57;3.60;;;;;;;-148.88;100.00;75480.69;5012307;28;20110;-75
2023/01/02 01:28:33;;;;;;;12.50;3.53;;;;;;;-148.88;100.00;75460.38;4994731;28;20034;-75
2023/01/02 01:31:06;;;;;;;12.77;4.10;;;;;;;-148.88;100.00;75440.06;5012359;28;20048;-75
2023/01/02 01:33:32;;;;;;;9.30;3.50;;;;;;;-148.88;100.00;75431.94;4994620;28;20026;-75
2023/01/02 01:36:09;;;;;;;10.10;3.63;;;;;;;-148.88;100.00;75421.78;4995374;28;20125;-75
2023/01/02 01:38:35;;;;;;;12.30;3.15;;;;;;;-148.88;100.00;75415.69;5012201;28;20037;-75
2023/01/02 01:41:01;;;;;;;9.00;3.30;;;;;;;-148.88;98.92;75383.19;5012141;28;20026;-75
2023/01/02 01:43:50;;;;;;;9.50;3.85;;;;;;;-148.88;98.44;75383.19;5012096;28;20521;-75
2023/01/02 01:46:25;;;;;;;10.60;3.63;;;;;;;-148.88;98.96;75385.22;5012180;28;20022;-75
2023/01/02 01:49:02;;;;;;;8.60;3.20;;;;;;;-148.88;97.98;75385.22;4994599;28;20068;-75
2023/01/02 01:51:31;;;;;;;9.45;3.25;;;;;;;-148.88;97.22;75379.13;4994359;28;20025;-75
2023/01/02 01:54:10;;;;;;;8.77;3.00;;;;;;;-148.88;97.22;75366.94;5011956;28;20529;-75
2023/01/02 01:56:40;;;;;;;8.75;3.63;;;;;;;-148.88;96.21;75354.75;5012003;28;20037;-75
2023/01/02 01:59:08;;;;;;;8.30;3.22;;;;;;;-148.88;95.58;75346.63;5009848;28;20057;-75
2023/01/02 02:01:34;;;;;;;8.88;3.10;;;;;;;-148.88;93.99;75320.22;5010743;28;20525;-75
2023/01/02 02:03:59;;;;;;;9.20;3.10;;;;;;;-148.88;92.58;75306.00;5012161;28;20110;-75
2023/01/02 02:06:25;;;;;;;8.60;2.78;;;;;;;-148.88;93.11;75308.03;5010482;28;20044;-75
2023/01/02 02:08:56;;;;;;;8.05;3.13;;;;;;;-148.88;93.21;75314.13;5010509;28;20045;-75
2023/01/02 02:11:22;;;;;;;7.50;2.75;;;;;;;-148.88;93.25;75306.00;5010428;28;20018;-75
2023/01/02 02:13:48;;;;;;;10.70;3.13;;;;;;;-148.88;94.22;75324.28;5010370;28;20061;-75
2023/01/02 02:16:16;;;;;;;7.43;2.83;;;;;;;-148.88;94.12;75326.31;5011851;28;20026;-76
2023/01/02 02:19:03;;;;;;;9.18;2.80;;;;;;;-148.88;94.05;75318.19;5012395;28;20026;-75
2023/01/02 02:21:53;;;;;;;12.50;3.30;;;;;;;-148.88;93.46;75314.13;5013845;28;20029;-75
2023/01/02 02:24:56;;;;;;;8.98;3.42;;;;;;;-148.88;94.29;75324.28;5015124;28;20026;-74
2023/01/02 02:27:40;;;;;;;9.38;2.97;;;;;;;-148.88;93.94;75320.22;5015102;28;20025;-75
2023/01/02 02:30:17;;;;;;;7.95;2.92;;;;;;;-148.88;93.73;75318.19;5015134;28;20474;-75
2023/01/02 02:33:15;;;;;;;7.25;2.97;;;;;;;-148.88;94.31;75310.06;5014079;28;20030;-75
2023/01/02 02:36:00;;;;;;;9.02;3.17;;;;;;;-148.88;96.69;75314.13;5013748;28;20098;-75
2023/01/02 02:38:44;;;;;;;7.40;2.80;;;;;;;-148.88;98.37;75324.28;5015028;28;20022;-75
2023/01/02 02:41:32;;;;;;;9.10;3.05;;;;;;;-148.88;100.00;75336.47;5014720;28;20509;-75
2023/01/02 02:44:07;;;;;;;9.57;3.17;;;;;;;-148.88;100.00;75352.72;5014871;28;20113;-75
2023/01/02 02:46:49;;;;;;;9.00;3.25;;;;;;;-148.88;100.00;75350.69;5014945;28;20068;-75
2023/01/02 02:49:59;;;;;;;14.90;3.33;;;;;;;-148.88;100.00;75342.56;5015246;28;20387;-75
2023/01/02 02:52:48;;;;;;;6.82;2.92;;;;;;;-148.88;100.00;75350.69;5015085;28;20029;-76
2023/01/02 02:55:29;;;;;;;12.45;3.45;;;;;;;-148.88;100.00;75350.69;5014798;28;20470;-75
2023/01/02 02:57:57;;;;;;;9.30;3.55;;;;;;;-148.88;100.00;75362.88;5048963;22;20045;-85
2023/01/02 03:02:50;;;;;;;9.27;3.72;;;;;;;-148.88;100.00;75379.13;5013723;28;20116;-74
2023/01/02 03:05:24;;;;;;;7.68;3.50;;;;;;;-148.88;100.00;75383.19;4997767;28;20026;-74
2023/01/02 03:08:05;;;;;;;11.65;3.88;;;;;;;-148.88;100.00;75383.19;4997731;28;20117;-73
2023/01/02 03:10:54;;;;;;;9.05;3.60;;;;;;;-148.88;100.00;75383.19;5015229;28;20104;-73
2023/01/02 03:13:44;;;;;;;10.52;3.50;;;;;;;-148.88;100.00;75409.59;5015240;28;20033;-74
2023/01/02 03:16:24;;;;;;;11.02;3.80;;;;;;;-148.88;100.00;75425.84;5015794;28;20033;-75
2023/01/02 03:18:52;;;;;;;13.98;3.88;;;;;;;-148.88;100.00;75427.88;5015165;28;20037;-74
2023/01/02 03:21:59;;;;;;;13.48;3.90;;;;;;;-148.88;100.00;75431.94;4997501;28;20021;-73
2023/01/02 03:24:28;;;;;;;14.02;5.05;;;;;;;-148.88;100.00;75440.06;4997198;28;20057;-74
2023/01/02 03:27:02;;;;;;;11.07;3.53;;;;;;;-148.88;100.00;75431.94;4997374;28;20030;-74
2023/01/02 03:29:33;;;;;;;10.98;4.30;;;;;;;-148.88;100.00;75444.13;4997510;28;20110;-74
2023/01/02 03:32:00;;;;;;;13.35;4.32;;;;;;;-148.88;100.00;75456.31;5014789;28;20030;-74
2023/01/02 03:34:31;;;;;;;11.35;4.28;;;;;;;-148.88;100.00;75448.19;5014772;28;20370;-74
2023/01/02 03:37:03;;;;;;;9.35;4.22;;;;;;;-148.88;100.00;75462.41;5015344;28;20025;-74
2023/01/02 03:39:34;;;;;;;8.93;4.47;;;;;;;-148.88;100.00;75468.50;4997303;28;20064;-74
2023/01/02 03:42:04;;;;;;;9.27;4.05;;;;;;;-148.88;100.00;75466.47;5015657;28;20102;-74
2023/01/02 03:44:47;;;;;;;13.57;4.05;;;;;;;-148.88;100.00;75476.63;5014619;28;20032;-74
2023/01/02 03:47:40;;;;;;;11.18;4.00;;;;;;;-148.88;100.00;75486.78;5014811;28;20061;-74
2023/01/02 03:50:14;;;;;;;12.23;3.80;;;;;;;-148.88;100.00;75488.81;4996871;28;20030;-74
2023/01/02 03:52:39;;;;;;;8.32;3.97;;;;;;;-148.88;100.00;75476.63;5014760;28;20034;-74
2023/01/02 03:55:06;;;;;;;12.07;4.20;;;;;;;-148.88;100.00;75472.56;5014481;28;20427;-74
2023/01/02 03:57:54;;;;;;;9.32;3.60;;;;;;;-148.88;100.00;75464.44;5014643;28;20053;-74
2023/01/02 04:00:20;;;;;;;8.40;3.80;;;;;;;-148.88;100.00;75450.22;5014830;28;20080;-74
2023/01/02 04:03:11;;;;;;;13.80;3.70;;;;;;;-148.88;100.00;75440.06;5014227;28;20457;-74
2023/01/02 04:05:47;;;;;;;9.63;3.47;;;;;;;-148.88;100.00;75431.94;4996736;28;20117;-74
2023/01/02 04:08:23;;;;;;;9.60;3.28;;;;;;;-148.88;100.00;75427.88;4996773;28;20021;-74
2023/01/02 04:10:52;;;;;;;10.48;3.42;;;;;;;-148.88;100.00;75403.50;4996683;28;20069;-74
2023/01/02 04:13:26;;;;;;;8.57;3.47;;;;;;;-148.88;100.00;75389.28;4996521;28;20034;-74
2023/01/02 04:15:53;;;;;;;7.78;3.72;;;;;;;-148.88;100.00;75399.44;5014678;28;20022;-74
2023/01/02 04:18:24;;;;;;;12.15;3.78;;;;;;;-148.88;100.00;75415.69;5014148;28;20033;-74
2023/01/02 04:20:54;;;;;;;8.32;3.75;;;;;;;-148.88;100.00;75421.78;5014010;28;20030;-73
2023/01/02 04:23:42;;;;;;;9.65;3.63;;;;;;;-148.88;100.00;75415.69;5013886;28;20026;-74
2023/01/02 04:26:18;;;;;;;10.90;3.67;;;;;;;-148.88;100.00;75411.63;4996144;28;20056;-74
2023/01/02 04:28:43;;;;;;;12.00;4.18;;;;;;;-148.88;100.00;75415.69;5014161;28;20385;-74
2023/01/02 04:31:18;;;;;;;6.45;3.15;;;;;;;-148.88;100.00;75407.56;4996219;28;20021;-74
2023/01/02 04:33:48;;;;;;;9.32;3.60;;;;;;;-148.88;100.00;75409.59;5013896;28;20030;-74
2023/01/02 04:36:14;;;;;;;11.07;3.88;;;;;;;-148.88;100.00;75405.53;5014097;28;20033;-74
2023/01/02 04:38:41;;;;;;;6.70;3.03;;;;;;;-148.88;100.00;75413.66;5013819;28;20026;-74
2023/01/02 04:41:07;;;;;;;8.82;3.67;;;;;;;-148.88;100.00;75423.81;5013242;28;20025;-74
2023/01/02 04:43:32;;;;;;;8.20;3.50;;;;;;;-148.88;100.00;75415.69;5013493;28;20393;-74
2023/01/02 04:45:58;;;;;;;9.90;3.80;;;;;;;-148.88;100.00;75427.88;5013621;28;20119;-74
2023/01/02 04:48:23;;;;;;;12.23;5.25;;;;;;;-148.88;100.00;75438.03;4996078;28;20030;-74
2023/01/02 04:50:48;;;;;;;9.82;3.60;;;;;;;-148.88;100.00;75436.00;5013551;28;20177;-74
2023/01/02 04:53:14;;;;;;;10.07;3.38;;;;;;;-148.88;100.00;75440.06;5013679;28;20033;-74
2023/01/02 04:55:39;;;;;;;9.43;4.07;;;;;;;-148.88;100.00;75436.00;5013494;28;20018;-74
2023/01/02 04:58:05;;;;;;;9.95;3.58;;;;;;;-148.88;100.00;75438.03;4995899;28;20085;-74
2023/01/02 05:00:31;;;;;;;8.05;3.53;;;;;;;-148.88;100.00;75427.88;5013335;28;20045;-76
2023/01/02 05:02:56;;;;;;;9.55;3.78;;;;;;;-148.88;100.00;75436.00;5013416;28;20022;-74
2023/01/02 05:05:22;;;;;;;9.50;3.38;;;;;;;-148.88;100.00;75454.28;4995876;28;20040;-73
2023/01/02 05:07:47;;;;;;;8.95;3.97;;;;;;;-148.88;100.00;75450.22;5013421;28;20544;-74
2023/01/02 05:10:12;;;;;;;11.85;3.85;;;;;;;-148.88;100.00;75452.25;4995749;28;20552;-74
2023/01/02 05:12:38;;;;;;;11.00;4.55;;;;;;;-148.88;100.00;75456.31;5013455;28;20095;-74
2023/01/02 05:15:07;;;;;;;8.98;4.03;;;;;;;-148.88;100.00;75462.41;5013397;28;20022;-74
2023/01/02 05:17:37;;;;;;;7.95;3.67;;;;;;;-148.88;100.00;75476.63;4995697;28;20489;-74
2023/01/02 05:20:05;;;;;;;14.20;3.90;;;;;;;-148.88;100.00;75464.44;5013256;28;20034;-74
2023/01/02 05:25:14;;;;;;;9.68;3.80;;;;;;;-148.88;100.00;75488.81;5013730;28;20084;-74
2023/01/02 05:27:40;;;;;;;15.07;4.00;;;;;;;-148.88;100.00;75486.78;5013582;28;20026;-73
2023/01/02 05:30:06;;;;;;;11.82;3.85;;;;;;;-148.88;100.00;75474.59;4996415;28;20131;-74
2023/01/02 05:32:32;;;;;;;12.18;4.30;;;;;;;-148.88;100.00;75484.75;5012985;28;20033;-74
2023/01/02 05:34:57;;;;;;;11.75;4.40;;;;;;;-148.88;100.00;75484.75;5013392;28;20029;-73
2023/01/02 05:37:22;;;;;;;7.57;3.97;;;;;;;-148.88;100.00;75488.81;4995612;28;20029;-73
2023/01/02 05:39:48;;;;;;;8.15;4.05;;;;;;;-148.88;100.00;75490.84;5013326;28;20063;-74
2023/01/02 05:42:13;;;;;;;8.65;4.10;;;;;;;-148.88;100.00;75494.91;5013326;28;20018;-73
2023/01/02 05:44:39;;;;;;;11.02;3.70;;;;;;;-148.88;100.00;75488.81;5013138;28;20053;-73
2023/01/02 05:47:04;;;;;;;11.30;4.32;;;;;;;-148.88;100.00;75494.91;4995541;28;20026;-74
2023/01/02 05:49:29;;;;;;;10.35;4.20;;;;;;;-148.88;100.00;75505.06;5013262;28;20584;-74
2023/01/02 05:51:55;;;;;;;8.10;4.18;;;;;;;-148.88;100.00;75501.00;5013305;28;20026;-73
2023/01/02 05:54:20;;;;;;;9.88;3.50;;;;;;;-148.88;100.00;75501.00;5016254;28;20026;-73
2023/01/02 05:56:45;;;;;;;9.73;3.90;;;;;;;-148.88;100.00;75511.16;4999155;28;20084;-73
2023/01/02 05:59:13;;;;;;;11.85;4.30;;;;;;;-148.88;100.00;75505.06;5016722;28;20034;-74
2023/01/02 06:01:39;;;;;;;8.40;3.70;;;;;;;-148.88;100.00;75505.06;5016688;28;20049;-74
2023/01/02 06:04:04;;;;;;;8.48;3.90;;;;;;;-148.88;100.00;75505.06;5016983;28;20469;-73
2023/01/02 06:06:36;;;;;;;8.75;3.80;;;;;;;-148.88;100.00;75484.75;5016746;28;20037;-73
2023/01/02 06:09:02;;;;;;;11.02;4.00;;;;;;;-148.88;100.00;75486.78;5016824;28;20045;-73
2023/01/02 06:11:28;;;;;;;9.65;3.47;;;;;;;-148.88;100.00;75468.50;5016457;28;20026;-73
2023/01/02 06:13:54;;;;;;;8.75;3.88;;;;;;;-148.88;100.00;75464.44;5016292;28;20037;-73
2023/01/02 06:16:20;;;;;;;12.05;3.72;;;;;;;-148.88;100.00;75444.13;4998722;28;20022;-73
2023/01/02 06:18:45;;;;;;;12.90;3.88;;;;;;;-148.88;100.00;75444.13;4998670;28;20104;-73
2023/01/02 06:21:13;;;;;;;7.47;3.00;;;;;;;-148.88;100.00;75440.06;5016240;28;20103;-73
2023/01/02 06:23:39;;;;;;;9.65;3.15;;;;;;;-148.88;100.00;75409.59;5016033;28;20103;-73
2023/01/02 06:26:08;;;;;;;9.77;3.38;;;;;;;-148.88;100.00;75407.56;5016227;28;20049;-73
2023/01/02 06:28:33;;;;;;;10.10;3.22;;;;;;;-148.88;100.00;75407.56;5016539;28;20037;-73
2023/01/02 06:31:06;;;;;;;9.25;3.40;;;;;;;-148.88;100.00;75433.97;4998294;28;20026;-73
2023/01/02 06:33:32;;;;;;;9.70;3.35;;;;;;;-148.88;100.00;75423.81;5016390;28;20032;-73
2023/01/02 06:36:17;;;;;;;8.10;2.92;;;;;;;-148.88;100.00;75425.84;4998310;28;20030;-73
2023/01/02 06:38:44;;;;;;;7.47;2.78;;;;;;;-148.88;100.00;75429.91;5016644;28;20029;-73
2023/01/02 06:41:09;;;;;;;8.98;3.17;;;;;;;-148.88;100.00;75409.59;5015920;28;20104;-73
2023/01/02 06:43:40;;;;;;;9.07;3.17;;;;;;;-148.88;99.27;75399.44;5015739;28;20113;-73
2023/01/02 06:46:05;;;;;;;6.90;3.17;;;;;;;-148.88;99.71;75403.50;4998613;28;20091;-73
2023/01/02 06:48:32;;;;;;;6.80;3.00;;;;;;;-148.88;99.53;75413.66;4998233;28;20435;-73
2023/01/02 06:50:58;;;;;;;10.27;3.38;;;;;;;-148.88;99.32;75407.56;5015635;28;20026;-72
2023/01/02 06:53:24;;;;;;;9.32;3.30;;;;;;;-148.88;99.04;75415.69;5015564;28;20076;-73
2023/01/02 06:55:55;;;;;;;8.25;3.10;;;;;;;-148.88;99.40;75415.69;5016026;28;20029;-73
2023/01/02 06:58:22;;;;;;;10.93;3.20;;;;;;;-148.88;98.44;75409.59;5015557;28;20028;-73
2023/01/02 07:00:48;;;;;;;6.72;2.90;;;;;;;-148.88;99.13;75411.63;5015631;28;20022;-73
2023/01/02 07:03:14;;;;;;;9.23;2.80;;;;;;;-148.88;99.19;75411.63;4997961;28;20025;-73
2023/01/02 07:05:40;;;;;;;7.20;2.95;;;;;;;-148.88;99.11;75415.69;5014791;28;20038;-72
2023/01/02 07:08:05;;;;;;;8.00;2.75;;;;;;;-148.88;98.95;75415.69;5015313;28;20026;-73
2023/01/02 07:10:31;;;;;;;7.70;2.97;;;;;;;-148.88;99.69;75415.69;4997635;28;20026;-73
2023/01/02 07:12:56;;;;;;;6.35;2.88;;;;;;;-148.88;97.71;75403.50;4997478;28;20533;-73
2023/01/02 07:15:22;;;;;;;10.00;3.13;;;;;;;-148.88;98.77;75411.63;4997572;28;20036;-72
2023/01/02 07:17:47;;;;;;;6.35;2.78;;;;;;;-148.88;98.74;75403.50;5015172;28;20022;-72
2023/01/02 07:20:13;;;;;;;6.88;2.58;;;;;;;-148.88;98.65;75403.50;4997584;28;20108;-72
2023/01/02 07:22:38;;;;;;;9.23;2.90;;;;;;;-148.88;98.43;75403.50;4997436;28;20022;-72
2023/01/02 07:25:04;;;;;;;7.60;2.67;;;;;;;-148.88;97.92;75403.50;5014919;28;20109;-72
2023/01/02 07:27:30;;;;;;;7.30;2.70;;;;;;;-148.88;97.78;75405.53;4997317;28;20036;-72
2023/01/02 07:29:56;;;;;;;7.43;2.50;;;;;;;-148.88;97.44;75407.56;4997440;28;20572;-72
2023/01/02 07:32:21;;;;;;;7.43;2.50;;;;;;;-148.88;97.78;75415.69;5014737;28;20465;-72
2023/01/02 07:34:47;;;;;;;5.75;2.30;;;;;;;-148.88;98.06;75427.88;4997114;28;20024;-73
2023/01/02 07:37:12;;;;;;;8.80;2.53;;;;;;;-148.88;97.71;75417.72;5015047;28;20034;-72
2023/01/02 07:39:37;;;;;;;9.52;2.75;;;;;;;-148.88;98.45;75436.00;4997069;28;20022;-73
2023/01/02 07:42:02;;;;;;;5.85;2.75;;;;;;;-148.88;98.89;75440.06;5015011;28;20037;-72
2023/01/02 07:44:28;;;;;;;10.23;2.90;;;;;;;-148.88;98.84;75444.13;4996994;28;20033;-73
2023/01/02 07:46:53;;;;;;;7.07;2.78;;;;;;;-148.88;99.68;75448.19;4997017;28;20041;-73
2023/01/02 07:49:19;;;;;;;6.72;2.75;;;;;;;-148.88;99.30;75456.31;5014564;28;20030;-73
2023/01/02 07:51:44;;;;;;;7.18;2.70;;;;;;;-148.88;98.67;75440.06;5014412;28;20095;-73
2023/01/02 07:54:09;;;;;;;7.53;2.55;;;;;;;-148.88;97.32;75440.06;4996713;28;20464;-72
2023/01/02 07:56:35;;;;;;;9.18;2.80;;;;;;;-148.88;97.66;75444.13;5014386;28;20105;-72
2023/01/02 07:59:00;;;;;;;8.18;2.25;;;;;;;-148.88;96.35;75431.94;5014361;28;20473;-72
2023/01/02 08:01:25;;;;;;;9.98;2.85;;;;;;;-148.88;96.56;75442.09;4996764;28;20477;-72
2023/01/02 08:03:51;;;;;;;6.90;2.70;;;;;;;-148.88;96.79;75442.09;5014209;28;20018;-73
2023/01/02 08:06:18;;;;;;;6.70;2.70;;;;;;;-148.88;97.00;75452.25;5014415;28;20071;-72
2023/01/02 08:08:43;;;;;;;8.68;2.65;;;;;;;-148.88;97.33;75452.25;5014097;28;20021;-72
2023/01/02 08:11:18;;;;;;;4.63;2.60;;;;;;;-148.88;97.16;75450.22;4996251;28;20030;-73
2023/01/02 08:13:44;;;;;;;7.70;2.53;;;;;;;-148.88;97.61;75458.34;5014206;28;20021;-73
2023/01/02 08:16:17;;;;;;;7.03;2.78;;;;;;;-148.88;98.09;75456.31;4996224;28;20068;-73
2023/01/02 08:18:43;;;;;;;7.25;2.85;;;;;;;-148.88;98.89;75476.63;5014076;28;20026;-73
2023/01/02 08:21:09;;;;;;;9.88;2.80;;;;;;;-148.88;100.00;75492.88;4996360;28;20079;-73
2023/01/02 08:23:35;;;;;;;11.13;3.20;;;;;;;-148.88;100.00;75501.00;5014091;28;20026;-72
2023/01/02 08:26:05;;;;;;;7.45;2.90;;;;;;;-148.88;100.00;75505.06;5013884;28;20104;-73
2023/01/02 08:28:31;;;;;;;5.72;2.60;;;;;;;-148.88;100.00;75490.84;5013881;28;20061;-72
2023/01/02 08:30:57;;;;;;;8.48;2.88;;;;;;;-148.88;100.00;75509.13;5013975;28;20029;-72
2023/01/02 08:33:22;;;;;;;8.38;2.63;;;;;;;-148.88;100.00;75521.31;5013703;28;20040;-73
2023/01/02 08:35:48;;;;;;;7.95;2.97;;;;;;;-148.88;100.00;75527.41;5013780;28;20440;-73
2023/01/02 08:38:13;;;;;;;5.30;2.88;;;;;;;-148.88;100.00;75541.63;4996099;28;20025;-73
2023/01/02 08:40:38;;;;;;;6.85;2.80;;;;;;;-148.88;100.00;75559.91;4996051;28;20099;-73
2023/01/02 08:43:06;;;;;;;7.57;2.97;;;;;;;-148.88;100.00;75563.97;4995990;28;20029;-73
2023/01/02 08:45:32;;;;;;;9.30;3.05;;;;;;;-148.88;100.00;75566.00;5013561;28;20389;-73
2023/01/02 08:47:57;;;;;;;5.63;2.70;;;;;;;-148.88;100.00;75580.22;4995920;28;20021;-73
2023/01/02 08:50:22;;;;;;;8.52;3.35;;;;;;;-148.88;100.00;75586.31;4995945;28;20116;-73
2023/01/02 08:52:48;;;;;;;8.57;2.92;;;;;;;-148.88;100.00;75598.47;4995845;28;20033;-73
2023/01/02 08:55:13;;;;;;;8.52;2.72;;;;;;;-148.88;100.00;75592.38;5013731;28;20026;-73
2023/01/02 08:57:39;;;;;;;7.50;2.70;;;;;;;-148.88;100.00;75586.31;5013636;28;20384;-73
2023/01/02 09:00:04;;;;;;;8.90;3.00;;;;;;;-148.88;100.00;75592.38;4996307;28;20022;-73
2023/01/02 09:02:31;;;;;;;7.68;2.80;;;;;;;-148.88;100.00;75586.31;5013283;28;20022;-73
2023/01/02 09:04:56;;;;;;;5.82;2.38;;;;;;;-148.88;100.00;75582.22;5013359;28;20060;-73
2023/01/02 09:07:21;;;;;;;7.47;2.85;;;;;;;-148.88;100.00;75576.13;5013393;28;20393;-73
2023/01/02 09:09:46;;;;;;;6.18;2.55;;;;;;;-148.88;100.00;75574.13;5013508;28;20029;-73
2023/01/02 09:12:12;;;;;;;9.35;3.00;;;;;;;-148.88;100.00;75598.47;5013335;28;20021;-73
2023/01/02 09:14:37;;;;;;;6.25;3.05;;;;;;;-148.88;100.00;75590.34;4995608;28;20402;-73
2023/01/02 09:17:03;;;;;;;9.48;3.10;;;;;;;-148.88;100.00;75598.47;5013272;28;20523;-72
2023/01/02 09:19:28;;;;;;;7.00;2.60;;;;;;;-148.88;100.00;75594.44;4995649;28;20026;-72
2023/01/02 09:21:54;;;;;;;7.63;2.95;;;;;;;-148.88;100.00;75598.47;5013426;28;20125;-73
2023/01/02 09:24:19;;;;;;;8.23;2.55;;;;;;;-148.88;100.00;75594.44;4995421;28;20370;-73
2023/01/02 09:26:44;;;;;;;7.47;2.97;;;;;;;-148.88;100.00;75596.44;4995534;28;20401;-73
2023/01/02 09:29:11;;;;;;;8.63;3.30;;;;;;;-148.88;100.00;75610.66;5016606;28;20072;-73
2023/01/02 09:31:37;;;;;;;7.40;2.95;;;;;;;-148.88;100.00;75612.69;5017142;28;20033;-73
2023/01/02 09:34:03;;;;;;;7.20;2.63;;;;;;;-148.88;100.00;75600.50;5017076;28;20026;-72
2023/01/02 09:36:28;;;;;;;6.90;2.70;;;;;;;-148.88;100.00;75604.56;5017295;28;20029;-72
2023/01/02 09:38:59;;;;;;;5.43;3.00;;;;;;;-148.88;100.00;75614.72;5017209;28;20026;-72
2023/01/02 09:41:27;;;;;;;6.32;2.53;;;;;;;-148.88;100.00;75608.63;5017015;28;20596;-72
2023/01/02 09:44:03;;;;;;;5.78;2.72;;;;;;;-148.88;100.00;75614.72;5016847;28;20396;-73
2023/01/02 09:46:35;;;;;;;6.68;2.83;;;;;;;-148.88;100.00;75612.69;5016778;28;20025;-73
2023/01/02 09:49:01;;;;;;;8.73;3.25;;;;;;;-148.88;100.00;75618.78;5017024;28;20492;-72
2023/01/02 09:51:27;;;;;;;6.78;3.05;;;;;;;-148.88;100.00;75616.75;5016906;28;20030;-72
2023/01/02 09:53:52;;;;;;;6.82;3.00;;;;;;;-148.88;100.00;75622.84;5000121;28;20025;-73
2023/01/02 09:56:27;;;;;;;7.55;3.20;;;;;;;-148.88;100.00;75630.97;5016625;28;20018;-72
2023/01/02 09:59:13;;;;;;;6.57;3.85;;;;;;;-148.88;100.00;75647.22;4999040;28;20531;-72
2023/01/02 10:01:58;;;;;;;6.28;3.60;;;;;;;-148.88;100.00;75673.63;5016567;28;20038;-73
2023/01/02 10:04:48;;;;;;;7.53;4.13;;;;;;;-148.88;100.00;75708.16;5016608;28;20504;-73
2023/01/02 10:07:35;;;;;;;6.80;3.97;;;;;;;-148.88;100.00;75698.00;5016854;28;20077;-72
2023/01/02 10:10:09;;;;;;;7.40;3.97;;;;;;;-148.88;100.00;75702.06;5016725;28;20022;-73
2023/01/02 10:12:52;;;;;;;5.95;3.85;;;;;;;-148.88;100.00;75720.34;4998669;28;20504;-73
2023/01/02 10:15:25;;;;;;;6.43;3.70;;;;;;;-148.88;100.00;75724.41;5016726;28;20393;-73
2023/01/02 10:17:56;;;;;;;7.78;3.97;;;;;;;-148.88;100.00;75740.66;5016313;28;20052;-73
2023/01/02 10:20:41;;;;;;;5.68;3.30;;;;;;;-148.88;100.00;75744.72;5016514;28;20438;-73
2023/01/02 10:23:12;;;;;;;5.30;2.58;;;;;;;-148.88;100.00;75763.00;4998507;28;20400;-73
2023/01/02 10:25:43;;;;;;;4.18;2.53;;;;;;;-148.88;100.00;75765.03;5016142;28;20061;-73
2023/01/02 10:28:34;;;;;;;3.72;2.05;;;;;;;-148.88;100.00;75769.09;5016186;28;20022;-73
2023/01/02 10:31:06;;;;;;;6.15;2.65;;;;;;;-148.88;100.00;75773.16;4998582;28;20104;-73
2023/01/02 10:33:54;;;;;;;3.25;2.08;;;;;;;-148.88;100.00;75767.06;5016088;28;20140;-73
2023/01/02 10:36:38;;;;;;;3.33;1.83;;;;;;;-148.88;100.00;75779.25;5016186;28;20396;-73
2023/01/02 10:39:07;;;;;;;2.80;1.30;;;;;;;-148.88;100.00;75793.47;5016409;28;20103;-73
2023/01/02 10:41:34;;;;;;;3.42;2.00;;;;;;;-148.88;100.00;75793.47;4998258;28;20026;-73
2023/01/02 10:44:03;;;;;;;2.15;1.30;;;;;;;-148.88;100.00;75801.59;5015987;28;20160;-73
2023/01/02 10:46:35;;;;;;;3.28;1.75;;;;;;;-148.88;100.00;75805.66;5015993;28;20029;-73
2023/01/02 10:49:03;;;;;;;4.30;1.90;;;;;;;-148.88;100.00;75803.63;5015945;28;20080;-72
2023/01/02 10:51:28;;;;;;;2.75;1.70;;;;;;;-148.88;100.00;75825.97;4998087;28;20444;-73
2023/01/02 10:54:02;;;;;;;2.35;1.73;;;;;;;-148.88;100.00;75830.03;5015582;28;20477;-73
2023/01/02 10:56:31;;;;;;;3.15;1.70;;;;;;;-148.88;100.00;75858.47;5015468;28;20026;-72
2023/01/02 10:58:57;;;;;;;2.92;2.10;;;;;;;-148.88;100.00;75848.31;5015469;28;20500;-72
2023/01/02 11:01:23;;;;;;;2.85;1.80;;;;;;;-148.88;100.00;75862.53;5015295;28;20432;-73
2023/01/02 11:04:09;;;;;;;2.45;1.63;;;;;;;-148.88;100.00;75870.66;4997652;28;20076;-72
2023/01/02 11:06:47;;;;;;;2.35;1.50;;;;;;;-148.88;100.00;75897.06;4997797;28;20381;-72
2023/01/02 11:09:22;;;;;;;1.77;0.95;;;;;;;-148.88;100.00;75915.34;5015605;28;20033;-72
2023/01/02 11:11:53;;;;;;;1.60;1.00;;;;;;;-148.88;100.00;75923.47;4997660;28;20627;-72
2023/01/02 11:14:32;;;;;;;1.92;1.15;;;;;;;-148.88;100.00;75907.22;4997593;28;20477;-72
2023/01/02 11:17:12;;;;;;;1.80;1.20;;;;;;;-148.88;100.00;75911.28;5015281;28;20038;-72
2023/01/02 11:19:45;;;;;;;2.10;1.02;;;;;;;-148.88;100.00;75925.50;5015482;28;20523;-72
2023/01/02 11:22:13;;;;;;;1.15;0.60;;;;;;;-148.88;100.00;75943.78;5015006;28;20508;-72
2023/01/02 11:25:09;;;;;;;1.30;0.60;;;;;;;-148.88;100.00;75964.09;5014977;28;20113;-72
2023/01/02 11:27:40;;;;;;;1.98;0.88;;;;;;;-148.88;100.00;75970.19;5014910;28;20057;-72